首页
METAR-TAF:

METAR-TAF

机场 :

西沃萨古尔·拉姆古兰爵士国际机场

毛里求斯, 毛里求斯

纬度: 20-26S, 经度: 057-40E, 海拔: 55米

当前天气观测

该预报发布于51分钟前的00:00 UTC
风速3节,风向西北
温度 21°C
湿度 94%
气压 1020 hPa
能见度10公里或以上
少量云层高于1800英尺

METAR: FIMP 210000Z 32003KT 9999 FEW018 21/20 Q1020

时间: 04:51 (00:51 UTC)

预报

该预报发布于1小时和11分钟前的23:40 UTC
预报有效从21日的 00点(UTC)到 22日的 06点(UTC)
风速3节,风向北转西北
能见度10公里或以上
散云层高于1800英尺
短暂存在
从 21日的 03点(UTC)到 21日的 18点(UTC)
能見度: 7000
少量云层高于1000英尺
多云层高于1500英尺
多云层高于5000英尺
小阵雨
几率 30% :
短暂存在
从 21日的 09点(UTC)到 21日的 15点(UTC)
能見度: 5000
多云层高于1400英尺
多云层高于4500英尺
小阵雨
成为
从 21日的 04点(UTC)到 21日的 06点(UTC)
风速8节,风向东南

TAF: FIMP 202340Z 2100/2206 33003KT 9999 SCT018 TEMPO 2103/2118 7000 -SHRA FEW010 BKN015 BKN050 PROB30 TEMPO 2109/2115 5000 -SHRA FEWOO8 BKN014 BKN045 BECMG 2104/2106 14008KT

超过4000个机场的气象观测和天气预报(METAR&TAF报告)。

可查询的气象台以黄色和红色小点在地图上表示。

将鼠标移到小点上方,可查看气象台名称。

然后点击查看天气观测和预报。

如需切换地图:点击带黑十字的绿色按钮放大地图;点击带横线的绿色按钮缩小地图;或者点击绿色箭头查看邻近地区的地图。


METAR-TAF: